Time;durP1;ratioP1;P1;durP2;ratioP2;P2;SDS_P1;SDS_P2;PMS_P1;PMS_P2;Temp;Humidity;BMP_temperature;BMP_pressure;BME280_temperature;BME280_humidity;BME280_pressure;Samples;Min_cycle;Max_cycle;Signal;HPM_P1;HPM_P2
2022/05/10 00:00:38;;;;;;;;;17.50;16.25;;;;;21.36;46.54;101652.56;5059038;28;46118;-66
2022/05/10 00:03:07;;;;;;;;;21.50;19.25;;;;;21.36;45.89;101654.41;5062232;28;45507;-66
2022/05/10 00:05:39;;;;;;;;;22.25;18.75;;;;;21.33;46.10;101650.03;5063207;28;45365;-66
2022/05/10 00:08:09;;;;;;;;;19.25;18.50;;;;;21.32;46.41;101648.31;5073116;28;45239;-66
2022/05/10 00:10:36;;;;;;;;;17.75;16.50;;;;;21.30;46.55;101644.84;5079357;28;45359;-66
2022/05/10 00:13:01;;;;;;;;;18.50;18.50;;;;;21.24;46.48;101646.06;5065573;28;45453;-66
2022/05/10 00:15:27;;;;;;;;;19.50;17.50;;;;;21.27;46.17;101651.31;5059065;28;45311;-66
2022/05/10 00:17:53;;;;;;;;;19.00;17.50;;;;;21.25;47.07;101645.13;5059372;28;45212;-66
2022/05/10 00:20:21;;;;;;;;;20.75;20.75;;;;;21.26;46.95;101643.25;5059075;28;46410;-66
2022/05/10 00:22:47;;;;;;;;;18.75;17.00;;;;;21.25;46.88;101638.78;5066822;28;45330;-66
2022/05/10 00:25:17;;;;;;;;;20.50;17.50;;;;;21.24;46.70;101640.63;5066878;28;45384;-66
2022/05/10 00:27:43;;;;;;;;;22.50;20.00;;;;;21.23;46.89;101638.03;5059490;27;45421;-66
2022/05/10 00:30:09;;;;;;;;;17.25;16.75;;;;;21.20;46.83;101640.91;5070890;28;45460;-66
2022/05/10 00:32:37;;;;;;;;;21.00;18.00;;;;;21.17;46.57;101633.88;5077594;28;45297;-66
2022/05/10 00:35:05;;;;;;;;;19.25;18.75;;;;;21.14;46.65;101628.63;5079178;28;45574;-66
2022/05/10 00:37:31;;;;;;;;;21.00;18.00;;;;;21.13;46.69;101640.44;5058753;28;45303;-66
2022/05/10 00:39:56;;;;;;;;;20.25;18.75;;;;;21.11;46.68;101623.38;5058884;28;45325;-66
2022/05/10 00:42:34;;;;;;;;;16.75;16.75;;;;;21.05;46.88;101624.66;5058752;28;45446;-66
2022/05/10 00:45:15;;;;;;;;;18.50;18.50;;;;;21.09;47.09;101623.47;5059033;28;45413;-66
2022/05/10 00:48:08;;;;;;;;;20.75;20.75;;;;;21.12;47.38;101626.97;5062287;28;45471;-66
2022/05/10 00:50:39;;;;;;;;;18.75;17.00;;;;;21.09;47.69;101630.75;5062437;28;45290;-67
2022/05/10 00:53:23;;;;;;;;;20.50;18.50;;;;;21.08;47.40;101629.00;5074434;28;45510;-66
2022/05/10 00:56:14;;;;;;;;;18.75;18.25;;;;;21.04;47.06;101606.59;5071175;28;45310;-66
2022/05/10 00:59:00;;;;;;;;;20.75;19.50;;;;;21.01;47.85;101614.94;5082123;28;45250;-66
2022/05/10 01:01:32;;;;;;;;;17.50;17.50;;;;;21.02;47.58;101608.56;5080000;28;46802;-66
2022/05/10 01:04:25;;;;;;;;;22.25;20.00;;;;;21.01;47.64;101606.78;5062140;28;45465;-66
2022/05/10 01:06:51;;;;;;;;;23.00;21.50;;;;;20.98;47.50;101601.59;5065739;28;45358;-66
2022/05/10 01:09:26;;;;;;;;;20.50;18.50;;;;;20.96;47.71;101600.78;5082201;28;45260;-66
2022/05/10 01:12:00;;;;;;;;;18.50;17.50;;;;;20.95;48.04;101607.19;5074408;28;46879;-66
2022/05/10 01:14:31;;;;;;;;;20.00;18.75;;;;;20.94;47.75;101610.00;5062518;28;45459;-66
2022/05/10 01:16:57;;;;;;;;;20.75;20.25;;;;;20.89;47.93;101599.44;5061707;28;45425;-66
2022/05/10 01:19:23;;;;;;;;;20.00;17.75;;;;;20.86;48.25;101597.75;5062633;27;45239;-67
2022/05/10 01:22:03;;;;;;;;;20.00;19.75;;;;;20.87;48.18;101604.09;5065552;28;45332;-66
2022/05/10 01:24:59;;;;;;;;;21.75;19.00;;;;;20.84;48.21;101593.41;5061559;28;45358;-66
2022/05/10 01:27:52;;;;;;;;;22.00;20.50;;;;;20.77;48.21;101592.06;5061567;28;45358;-66
2022/05/10 01:30:28;;;;;;;;;20.00;19.75;;;;;20.70;48.18;101595.16;5073888;28;45561;-66
2022/05/10 01:35:49;;;;;;;;;17.50;17.50;;;;;20.64;48.05;101579.25;5075590;28;45428;-66
2022/05/10 01:38:39;;;;;;;;;19.00;19.00;;;;;20.66;47.97;101588.16;5061453;28;45545;-66
2022/05/10 01:41:19;;;;;;;;;18.75;17.75;;;;;20.69;48.41;101587.09;5070040;28;45402;-66
2022/05/10 01:43:56;;;;;;;;;20.50;20.50;;;;;20.65;47.95;101574.72;5068033;28;45340;-66
2022/05/10 01:46:29;;;;;;;;;20.50;19.00;;;;;20.66;48.39;101582.72;5080774;28;45719;-66
2022/05/10 01:49:15;;;;;;;;;20.25;18.50;;;;;20.61;48.24;101576.69;5061567;28;45264;-66
2022/05/10 01:51:50;;;;;;;;;19.25;18.50;;;;;20.59;48.33;101583.19;5060447;28;45617;-67
2022/05/10 01:54:39;;;;;;;;;19.75;19.25;;;;;20.57;48.48;101572.44;5074365;28;46316;-66
2022/05/10 01:57:09;;;;;;;;;21.75;20.50;;;;;20.55;48.44;101574.38;5059772;28;45670;-67
2022/05/10 01:59:35;;;;;;;;;19.00;19.00;;;;;20.54;48.24;101570.75;5064334;28;45375;-66
2022/05/10 02:02:03;;;;;;;;;20.25;18.25;;;;;20.50;48.42;101563.78;5071045;28;45540;-66
2022/05/10 02:04:34;;;;;;;;;18.00;17.25;;;;;20.52;48.98;101571.84;5060946;28;46076;-67
2022/05/10 02:07:08;;;;;;;;;20.25;19.25;;;;;20.50;48.66;101566.50;5065800;28;45258;-66
2022/05/10 02:09:39;;;;;;;;;22.00;20.50;;;;;20.47;48.68;101569.41;5074250;28;45380;-66
2022/05/10 02:12:11;;;;;;;;;23.75;19.50;;;;;20.41;49.05;101561.63;5061073;28;45346;-66
2022/05/10 02:14:50;;;;;;;;;19.75;18.75;;;;;20.37;48.61;101565.50;5060961;28;46093;-66
2022/05/10 02:17:24;;;;;;;;;19.50;18.50;;;;;20.34;49.18;101563.84;5060659;28;45554;-66
2022/05/10 02:19:57;;;;;;;;;20.50;20.50;;;;;20.31;49.03;101563.16;5062039;27;45293;-66
2022/05/10 02:22:33;;;;;;;;;18.25;18.25;;;;;20.29;48.99;101556.97;5065432;28;45552;-66
2022/05/10 02:25:03;;;;;;;;;25.00;21.00;;;;;20.24;49.13;101553.66;5070117;28;45232;-66
2022/05/10 02:27:46;;;;;;;;;18.75;18.00;;;;;20.22;49.07;101561.88;5060741;28;45507;-66
2022/05/10 02:30:15;;;;;;;;;21.00;19.75;;;;;20.19;49.36;101553.91;5072957;28;45716;-66
2022/05/10 02:33:09;;;;;;;;;19.75;18.75;;;;;20.15;49.38;101553.25;5073636;28;45440;-66
2022/05/10 02:35:38;;;;;;;;;22.00;21.00;;;;;20.16;49.45;101562.22;5060419;28;46393;-66
2022/05/10 02:38:05;;;;;;;;;20.50;19.75;;;;;20.16;49.51;101548.69;5060487;28;45356;-67
2022/05/10 02:40:31;;;;;;;;;24.25;21.75;;;;;20.15;49.54;101553.25;5069761;28;45310;-66
2022/05/10 02:42:56;;;;;;;;;20.25;18.50;;;;;20.16;49.59;101552.28;5060489;28;45378;-66
2022/05/10 02:45:22;;;;;;;;;23.00;22.00;;;;;20.16;49.72;101551.38;5060124;28;45225;-67
2022/05/10 02:47:49;;;;;;;;;19.50;19.00;;;;;20.09;49.91;101531.91;5060406;28;45518;-66
2022/05/10 02:50:28;;;;;;;;;21.75;20.25;;;;;20.17;50.19;101547.72;5066327;28;45339;-66
2022/05/10 02:52:54;;;;;;;;;18.25;18.25;;;;;20.16;49.90;101545.97;5060142;28;45568;-66
2022/05/10 02:55:28;;;;;;;;;20.75;20.75;;;;;20.15;49.87;101546.97;5060430;28;45413;-66
2022/05/10 02:58:00;;;;;;;;;16.25;16.25;;;;;20.13;49.83;101544.34;5062600;28;45715;-66
2022/05/10 03:00:26;;;;;;;;;18.00;18.00;;;;;20.10;50.22;101538.22;5063274;28;45693;-66
2022/05/10 03:02:56;;;;;;;;;20.25;20.25;;;;;20.09;50.03;101537.34;5060095;28;45883;-66
2022/05/10 03:05:22;;;;;;;;;17.50;17.50;;;;;20.06;49.83;101528.53;5060073;28;46052;-66
2022/05/10 03:07:47;;;;;;;;;23.25;21.50;;;;;20.03;49.93;101526.00;5070802;28;45431;-67
2022/05/10 03:10:12;;;;;;;;;16.75;15.75;;;;;19.94;49.62;101511.16;5067924;28;45459;-66
2022/05/10 03:12:38;;;;;;;;;17.75;17.75;;;;;20.02;49.85;101525.13;5060056;28;45372;-66
2022/05/10 03:15:05;;;;;;;;;16.75;16.75;;;;;19.99;49.84;101525.31;5059742;28;46170;-67
2022/05/10 03:17:31;;;;;;;;;17.75;17.50;;;;;20.01;49.98;101528.78;5059898;28;45622;-66
2022/05/10 03:19:56;;;;;;;;;21.00;18.25;;;;;19.99;49.77;101519.88;5059684;27;45373;-67
2022/05/10 03:22:22;;;;;;;;;17.75;16.75;;;;;20.00;49.84;101518.94;5064386;28;45509;-66
2022/05/10 03:24:47;;;;;;;;;18.25;17.75;;;;;20.00;49.98;101524.34;5070888;28;45443;-67
2022/05/10 03:27:13;;;;;;;;;17.25;16.75;;;;;19.98;49.75;101515.44;5075551;28;45313;-67
2022/05/10 03:29:40;;;;;;;;;13.00;13.00;;;;;19.98;49.87;101508.19;5074883;28;45202;-66
2022/05/10 03:32:08;;;;;;;;;16.50;15.75;;;;;20.01;49.48;101517.94;5077118;28;46492;-66
2022/05/10 03:37:18;;;;;;;;;24.75;19.50;;;;;19.98;49.59;101513.59;5059421;28;45521;-66
2022/05/10 03:39:43;;;;;;;;;20.75;19.50;;;;;19.98;49.67;101508.19;5066355;28;45623;-67
2022/05/10 03:42:09;;;;;;;;;18.75;18.75;;;;;20.01;49.78;101511.66;5061237;28;45311;-66
2022/05/10 03:44:35;;;;;;;;;19.25;17.50;;;;;19.97;49.56;101514.56;5059589;28;46261;-66
2022/05/10 03:47:01;;;;;;;;;16.75;15.50;;;;;19.97;49.57;101505.56;5059010;28;45288;-66
2022/05/10 03:49:27;;;;;;;;;20.25;20.25;;;;;19.95;49.58;101505.66;5061928;28;45442;-66
2022/05/10 03:51:54;;;;;;;;;19.00;18.25;;;;;19.95;49.64;101505.66;5059652;28;45347;-66
2022/05/10 03:54:22;;;;;;;;;19.00;15.25;;;;;19.93;49.70;101501.28;5059081;28;46415;-66
2022/05/10 03:56:48;;;;;;;;;19.00;16.00;;;;;19.87;49.68;101494.41;5071206;28;45440;-66
2022/05/10 03:59:13;;;;;;;;;19.00;18.00;;;;;19.84;49.76;101500.00;5072249;28;45373;-66
2022/05/10 04:01:38;;;;;;;;;21.00;17.50;;;;;19.85;49.75;101498.19;5059649;28;45375;-66
2022/05/10 04:04:04;;;;;;;;;23.50;21.25;;;;;19.82;49.58;101501.94;5059761;28;46023;-66
2022/05/10 04:06:30;;;;;;;;;17.75;16.50;;;;;19.79;49.93;101502.97;5064757;28;45341;-66
2022/05/10 04:08:56;;;;;;;;;18.75;17.50;;;;;19.79;49.62;101502.09;5079814;28;45373;-66
2022/05/10 04:11:21;;;;;;;;;19.25;15.50;;;;;19.77;49.67;101495.91;5073226;28;45508;-66
2022/05/10 04:13:47;;;;;;;;;21.25;18.00;;;;;19.71;49.64;101488.09;5058741;28;46017;-66
2022/05/10 04:16:12;;;;;;;;;14.50;13.50;;;;;19.71;49.82;101494.41;5058984;28;45382;-66
2022/05/10 04:18:37;;;;;;;;;20.25;18.50;;;;;19.70;49.90;101497.22;5059432;28;45278;-66
2022/05/10 04:21:03;;;;;;;;;20.00;18.50;;;;;19.72;50.08;101498.84;5064144;27;45520;-66
2022/05/10 04:23:29;;;;;;;;;20.00;19.50;;;;;19.69;49.66;101496.31;5073864;28;45344;-66
2022/05/10 04:25:54;;;;;;;;;18.00;16.25;;;;;19.72;49.67;101500.69;5076552;28;45244;-66
2022/05/10 04:28:20;;;;;;;;;19.00;17.75;;;;;19.71;50.00;101496.22;5062789;28;45325;-66
2022/05/10 04:30:45;;;;;;;;;18.00;17.50;;;;;19.73;49.63;101502.41;5080736;28;45597;-67
2022/05/10 04:33:11;;;;;;;;;16.00;15.25;;;;;19.74;49.91;101493.34;5070819;28;45225;-66
2022/05/10 04:35:36;;;;;;;;;19.25;19.25;;;;;19.67;49.78;101483.84;5071886;28;45157;-66
2022/05/10 04:38:08;;;;;;;;;17.75;17.75;;;;;19.71;49.84;101489.00;5062488;28;45232;-66
2022/05/10 04:43:17;;;;;;;;;19.00;19.00;;;;;19.69;49.95;101495.44;5062340;28;45704;-66
2022/05/10 04:45:43;;;;;;;;;16.00;16.00;;;;;19.72;49.82;101500.69;5068395;28;45210;-66
2022/05/10 04:48:08;;;;;;;;;18.25;17.00;;;;;19.68;50.00;101489.19;5062315;28;45307;-66
2022/05/10 04:50:34;;;;;;;;;17.75;17.25;;;;;19.71;49.83;101497.13;5062388;28;45235;-66
2022/05/10 04:52:59;;;;;;;;;20.75;18.25;;;;;19.70;50.02;101494.50;5062027;28;45307;-66
2022/05/10 04:55:25;;;;;;;;;18.00;18.00;;;;;19.73;50.11;101491.59;5064553;28;45424;-66
2022/05/10 04:57:50;;;;;;;;;16.75;16.50;;;;;19.70;50.05;101498.06;5064529;28;45239;-66
2022/05/10 05:00:16;;;;;;;;;18.25;16.50;;;;;19.70;50.09;101495.38;5061678;28;45248;-67
2022/05/10 05:02:42;;;;;;;;;24.00;22.00;;;;;19.71;49.92;101497.13;5065616;28;46361;-66
2022/05/10 05:05:09;;;;;;;;;19.50;18.25;;;;;19.72;49.91;101490.72;5071991;28;45378;-66
2022/05/10 05:07:34;;;;;;;;;18.75;18.00;;;;;19.72;49.86;101500.69;5076126;28;45368;-66
2022/05/10 05:10:02;;;;;;;;;18.50;17.00;;;;;19.73;49.95;101503.31;5082106;28;45298;-66
2022/05/10 05:12:27;;;;;;;;;19.00;17.00;;;;;19.71;50.08;101498.94;5066033;28;45494;-66
2022/05/10 05:14:52;;;;;;;;;18.25;15.75;;;;;19.75;49.77;101505.97;5069277;28;45370;-66
2022/05/10 05:17:17;;;;;;;;;16.50;15.75;;;;;19.76;49.88;101503.19;5077278;28;45420;-66
2022/05/10 05:19:43;;;;;;;;;19.00;18.50;;;;;19.73;49.74;101492.47;5072538;27;45164;-66
2022/05/10 05:22:08;;;;;;;;;18.00;17.75;;;;;19.77;49.93;101501.31;5064336;28;46182;-66
2022/05/10 05:24:33;;;;;;;;;20.25;19.75;;;;;19.80;49.81;101503.84;5079120;28;45286;-66
2022/05/10 05:26:59;;;;;;;;;14.25;14.00;;;;;19.82;49.68;101512.75;5065834;28;45431;-66
2022/05/10 05:29:24;;;;;;;;;15.75;15.75;;;;;19.83;49.70;101509.09;5069131;28;45311;-66
2022/05/10 05:31:53;;;;;;;;;21.50;19.50;;;;;19.84;49.44;101507.25;5065479;28;45166;-66
2022/05/10 05:34:19;;;;;;;;;17.50;16.00;;;;;19.83;49.64;101505.50;5063023;28;45275;-66
2022/05/10 05:37:32;;;;;;;;;20.50;19.75;;;;;19.83;49.56;101511.81;5072800;28;45430;-71
2022/05/10 05:39:31;;;;;;;;;10.75;10.25;;;;;19.82;49.57;101506.47;5080279;27;45595;-71
2022/05/10 05:41:56;;;;;;;;;18.50;18.50;;;;;19.86;49.48;101513.44;5061472;28;45427;-70
2022/05/10 05:44:23;;;;;;;;;19.75;18.75;;;;;19.83;49.58;101509.09;5061495;28;45330;-71
2022/05/10 05:46:49;;;;;;;;;18.25;17.50;;;;;19.81;49.57;101511.00;5067132;28;45285;-71
2022/05/10 05:49:14;;;;;;;;;22.75;21.00;;;;;19.83;49.47;101509.09;5059898;28;45272;-73
2022/05/10 05:51:40;;;;;;;;;18.75;17.00;;;;;19.87;49.41;101517.91;5067935;28;46316;-72
2022/05/10 05:54:08;;;;;;;;;24.25;21.50;;;;;19.85;49.62;101511.72;5072998;28;45357;-72
2022/05/10 05:56:34;;;;;;;;;20.50;18.50;;;;;19.83;49.63;101511.81;5071363;28;45503;-72
2022/05/10 05:58:59;;;;;;;;;21.25;19.50;;;;;19.88;49.41;101515.13;5073020;28;45357;-73
2022/05/10 06:01:25;;;;;;;;;22.50;19.00;;;;;19.89;49.41;101515.97;5061075;28;45521;-72
2022/05/10 06:03:51;;;;;;;;;18.50;18.25;;;;;19.91;49.11;101519.47;5063232;28;45377;-72
2022/05/10 06:06:16;;;;;;;;;20.75;18.25;;;;;19.91;49.24;101512.22;5072719;28;45413;-72
2022/05/10 06:08:42;;;;;;;;;20.50;19.75;;;;;19.90;49.36;101506.91;5081073;28;45353;-72
2022/05/10 06:11:08;;;;;;;;;22.75;22.25;;;;;19.94;49.35;101514.72;5076343;28;45197;-72
2022/05/10 06:13:36;;;;;;;;;19.50;18.75;;;;;19.96;49.36;101514.66;5068058;28;45220;-71
2022/05/10 06:16:06;;;;;;;;;19.50;18.50;;;;;19.96;49.39;101514.66;5072218;28;47175;-72
2022/05/10 06:18:31;;;;;;;;;21.25;18.00;;;;;19.96;49.14;101512.84;5060616;28;45362;-71
2022/05/10 06:20:57;;;;;;;;;22.00;19.00;;;;;19.92;49.47;101503.13;5068473;28;45663;-71
2022/05/10 06:23:22;;;;;;;;;19.75;17.50;;;;;19.99;48.98;101514.47;5063187;28;45445;-71
2022/05/10 06:25:47;;;;;;;;;19.75;18.50;;;;;19.98;49.44;101512.75;5074219;28;45536;-71
2022/05/10 06:28:13;;;;;;;;;23.25;22.25;;;;;20.01;48.93;101511.66;5073987;28;45181;-71
2022/05/10 06:30:38;;;;;;;;;18.00;18.00;;;;;20.04;49.18;101514.19;5068305;28;47102;-71
2022/05/10 06:33:03;;;;;;;;;15.25;14.00;;;;;20.02;49.38;101511.56;5067703;28;45226;-71
2022/05/10 06:35:29;;;;;;;;;21.50;20.75;;;;;20.04;49.32;101508.78;5060655;28;45278;-71
2022/05/10 06:40:39;;;;;;;;;21.50;17.25;;;;;20.11;49.21;101502.91;5060301;28;45275;-70
2022/05/10 06:43:04;;;;;;;;;18.50;18.50;;;;;20.15;49.15;101509.00;5072367;28;45252;-71
2022/05/10 06:45:29;;;;;;;;;26.00;23.75;;;;;20.15;48.91;101499.03;5068165;28;45358;-71
2022/05/10 06:47:55;;;;;;;;;18.50;18.50;;;;;20.16;49.30;101500.78;5075064;28;46153;-71
2022/05/10 06:50:23;;;;;;;;;20.50;17.00;;;;;20.18;49.33;101495.28;5075930;28;47135;-70
2022/05/10 06:52:54;;;;;;;;;21.50;19.50;;;;;20.25;49.14;101501.19;5059935;27;45464;-70
2022/05/10 06:55:22;;;;;;;;;18.50;18.50;;;;;20.27;49.36;101507.38;5060538;28;45255;-70
2022/05/10 06:57:48;;;;;;;;;21.00;20.25;;;;;20.27;49.49;101501.97;5064104;28;45677;-71
2022/05/10 07:00:17;;;;;;;;;18.25;17.00;;;;;20.26;49.51;101492.94;5071226;28;46104;-71
2022/05/10 07:02:43;;;;;;;;;21.00;19.75;;;;;20.32;49.45;101507.97;5063808;28;45284;-71
2022/05/10 07:05:11;;;;;;;;;22.25;17.50;;;;;20.33;49.25;101507.88;5072168;28;45399;-70
2022/05/10 07:07:37;;;;;;;;;22.75;22.75;;;;;20.35;49.07;101505.94;5073403;28;45333;-71
2022/05/10 07:10:04;;;;;;;;;19.75;18.00;;;;;20.33;48.81;101490.72;5080153;28;46679;-71
2022/05/10 07:12:30;;;;;;;;;20.00;19.00;;;;;20.38;48.79;101493.16;5066253;28;45321;-71
2022/05/10 07:14:55;;;;;;;;;21.25;18.75;;;;;20.39;48.67;101492.19;5062381;28;45405;-71
2022/05/10 07:17:21;;;;;;;;;17.00;17.00;;;;;20.43;48.60;101485.59;5059851;28;45484;-66
2022/05/10 07:20:06;;;;;;;;;19.00;19.00;;;;;20.48;49.01;101494.31;5072964;28;45362;-66
2022/05/10 07:22:31;;;;;;;;;32.75;31.25;;;;;20.46;48.91;101488.13;5068662;28;45548;-66
2022/05/10 07:24:56;;;;;;;;;23.75;22.25;;;;;20.49;49.15;101488.81;5062844;28;45374;-65
2022/05/10 07:27:22;;;;;;;;;21.50;21.50;;;;;20.53;48.90;101494.91;5067738;28;45449;-66
2022/05/10 07:29:47;;;;;;;;;19.25;19.25;;;;;20.54;48.83;101488.53;5062618;28;45406;-66
2022/05/10 07:32:14;;;;;;;;;19.25;17.25;;;;;20.58;49.11;101489.22;5068733;28;45299;-66
2022/05/10 07:34:41;;;;;;;;;19.50;19.50;;;;;20.62;48.66;101496.19;5071024;28;45316;-66
2022/05/10 07:37:06;;;;;;;;;21.25;19.75;;;;;20.62;48.89;101493.50;5072029;28;45465;-65
2022/05/10 07:39:32;;;;;;;;;26.25;26.25;;;;;20.66;48.89;101486.91;5059569;28;46089;-66
2022/05/10 07:41:59;;;;;;;;;34.50;31.50;;;;;20.68;48.92;101485.88;5062498;28;45329;-65
2022/05/10 07:44:24;;;;;;;;;25.00;25.00;;;;;20.68;48.99;101476.84;5064935;28;45691;-66
2022/05/10 07:46:50;;;;;;;;;16.75;16.75;;;;;20.79;48.85;101492.44;5059479;28;45494;-66
2022/05/10 07:49:15;;;;;;;;;16.25;16.25;;;;;20.82;49.17;101492.25;5072708;28;46038;-66
2022/05/10 07:51:41;;;;;;;;;22.50;22.00;;;;;20.86;48.82;101496.50;5059255;28;45366;-66
2022/05/10 07:54:06;;;;;;;;;17.00;16.25;;;;;20.89;48.76;101496.31;5068026;28;45317;-66
2022/05/10 07:56:32;;;;;;;;;17.75;17.50;;;;;20.90;49.04;101485.38;5074284;28;45323;-66
2022/05/10 07:58:57;;;;;;;;;18.25;16.25;;;;;20.91;48.74;101488.94;5062673;28;46445;-66
2022/05/10 08:01:25;;;;;;;;;20.00;18.25;;;;;20.96;48.85;101486.81;5062763;28;45366;-65
2022/05/10 08:03:50;;;;;;;;;14.75;13.50;;;;;21.01;48.63;101481.94;5070131;28;45256;-66
2022/05/10 08:06:16;;;;;;;;;17.50;16.50;;;;;21.06;48.49;101482.50;5069251;28;45564;-66
2022/05/10 08:08:41;;;;;;;;;18.25;17.25;;;;;21.15;49.08;101489.22;5080984;28;46249;-65
2022/05/10 08:11:08;;;;;;;;;19.25;19.00;;;;;21.22;48.74;101489.69;5067500;28;45138;-65
2022/05/10 08:13:34;;;;;;;;;17.75;17.00;;;;;21.26;48.07;101485.78;5069393;28;45385;-66
2022/05/10 08:16:00;;;;;;;;;13.50;12.00;;;;;21.33;48.52;101488.97;5082796;28;45411;-65
2022/05/10 08:18:27;;;;;;;;;16.25;16.25;;;;;21.38;48.40;101489.53;5064698;28;47143;-66
2022/05/10 08:20:55;;;;;;;;;14.75;14.75;;;;;21.45;47.63;101490.84;5068268;27;46086;-65
2022/05/10 08:23:24;;;;;;;;;20.00;18.50;;;;;21.50;48.26;101494.19;5070003;28;45303;-65
2022/05/10 08:25:51;;;;;;;;;14.75;14.25;;;;;21.56;47.99;101499.19;5062542;28;45528;-65
2022/05/10 08:28:17;;;;;;;;;15.25;15.25;;;;;21.64;48.12;101501.41;5064439;28;46453;-65
2022/05/10 08:30:46;;;;;;;;;17.75;17.25;;;;;21.69;47.25;101495.69;5068778;28;45472;-66
2022/05/10 08:33:12;;;;;;;;;15.75;13.75;;;;;21.75;47.45;101496.13;5062594;28;45406;-65
2022/05/10 08:35:37;;;;;;;;;16.50;16.50;;;;;21.81;48.14;101495.69;5062374;28;45578;-66
2022/05/10 08:38:04;;;;;;;;;14.25;13.25;;;;;21.89;47.73;101497.03;5066936;28;45627;-65
2022/05/10 08:40:34;;;;;;;;;16.25;15.25;;;;;21.98;47.37;101499.97;5078082;28;45650;-65
2022/05/10 08:43:04;;;;;;;;;14.00;13.50;;;;;22.06;47.17;101499.47;5062599;28;45324;-66
2022/05/10 08:45:37;;;;;;;;;17.75;14.00;;;;;22.11;47.25;101497.28;5063820;28;45487;-65
2022/05/10 08:48:03;;;;;;;;;13.25;13.25;;;;;22.16;46.98;101496.97;5075473;27;46874;-65
2022/05/10 08:50:28;;;;;;;;;13.75;13.75;;;;;22.21;46.80;101492.94;5092433;27;45913;-65
2022/05/10 08:52:54;;;;;;;;;16.00;13.75;;;;;22.30;46.92;101487.88;5074482;28;45337;-65
2022/05/10 08:55:31;;;;;;;;;13.75;13.00;;;;;22.36;46.66;101487.47;5064195;28;45473;-65
2022/05/10 08:58:09;;;;;;;;;12.00;12.00;;;;;22.42;45.92;101486.16;5073991;27;46330;-66
2022/05/10 09:00:44;;;;;;;;;15.50;13.25;;;;;22.49;46.39;101480.19;5065408;28;47387;-65
2022/05/10 09:03:35;;;;;;;;;13.00;11.75;;;;;22.58;46.15;101481.38;5065510;28;46045;-65
2022/05/10 09:06:06;;;;;;;;;15.25;11.00;;;;;22.62;45.67;101482.00;5063831;28;46141;-65
2022/05/10 09:09:00;;;;;;;;;13.00;12.75;;;;;22.71;46.23;101479.50;5063368;28;47974;-65
2022/05/10 09:11:40;;;;;;;;;13.25;13.25;;;;;22.80;45.81;101482.53;5061006;28;45430;-65
2022/05/10 09:14:09;;;;;;;;;14.25;12.25;;;;;22.88;45.42;101478.28;5065375;28;45441;-65
2022/05/10 09:16:34;;;;;;;;;12.25;12.00;;;;;22.96;45.09;101480.44;5064896;28;45874;-65
2022/05/10 09:19:00;;;;;;;;;14.75;13.00;;;;;22.98;44.51;101470.31;5063499;28;45649;-65
2022/05/10 09:21:43;;;;;;;;;15.25;14.00;;;;;23.05;45.31;101474.31;5066279;28;45512;-65
2022/05/10 09:24:24;;;;;;;;;12.75;11.75;;;;;23.15;45.04;101477.25;5065061;28;46140;-66
2022/05/10 09:26:57;;;;;;;;;10.50;10.50;;;;;23.27;44.76;101472.75;5063795;27;47366;-65
2022/05/10 09:29:32;;;;;;;;;12.50;12.00;;;;;23.36;44.29;101471.22;5066270;28;46312;-66
2022/05/10 09:35:16;;;;;;;;;9.75;9.75;;;;;23.49;43.25;101464.72;5065732;28;45899;-66
2022/05/10 09:37:52;;;;;;;;;12.75;12.00;;;;;23.58;43.43;101457.69;5069300;28;45552;-66
2022/05/10 09:40:26;;;;;;;;;13.25;11.50;;;;;23.65;43.19;101458.09;5068142;28;46235;-65
2022/05/10 09:43:09;;;;;;;;;13.00;12.00;;;;;23.71;42.86;101467.69;5060837;28;45509;-65
2022/05/10 09:45:34;;;;;;;;;11.00;11.00;;;;;23.75;42.93;101461.00;5071195;28;45378;-65
2022/05/10 09:48:07;;;;;;;;;11.50;11.50;;;;;23.81;42.65;101471.44;5062339;28;45361;-66
2022/05/10 09:50:34;;;;;;;;;15.00;14.00;;;;;23.86;42.57;101458.34;5080210;28;46320;-66
2022/05/10 09:53:11;;;;;;;;;15.00;11.75;;;;;23.92;42.07;101460.56;5063396;28;45395;-66
2022/05/10 09:55:37;;;;;;;;;14.00;12.25;;;;;23.93;42.59;101450.56;5061380;28;45263;-66
2022/05/10 09:58:23;;;;;;;;;14.25;12.00;;;;;23.97;42.97;101444.75;5070817;28;45430;-65
2022/05/10 10:00:52;;;;;;;;;15.25;13.75;;;;;24.03;42.02;101452.44;5060722;28;46582;-66
2022/05/10 10:03:32;;;;;;;;;15.75;14.00;;;;;24.09;42.17;101447.50;5061329;28;45203;-65
2022/05/10 10:06:20;;;;;;;;;14.00;12.75;;;;;24.15;42.10;101441.56;5067957;28;45477;-66
2022/05/10 10:08:50;;;;;;;;;12.25;11.75;;;;;24.20;41.63;101444.78;5068150;28;45306;-65
2022/05/10 10:11:21;;;;;;;;;11.50;11.00;;;;;24.26;41.57;101443.44;5074370;28;45331;-65
2022/05/10 10:13:52;;;;;;;;;9.00;9.00;;;;;24.33;41.32;101444.69;5073155;28;45434;-65
2022/05/10 10:16:28;;;;;;;;;13.75;13.00;;;;;24.38;40.93;101429.69;5064633;28;45689;-66
2022/05/10 10:19:04;;;;;;;;;21.50;20.00;;;;;24.43;41.17;101432.06;5066184;28;45463;-66
2022/05/10 10:21:38;;;;;;;;;10.50;10.50;;;;;24.53;41.20;101434.91;5066701;28;46846;-66
2022/05/10 10:24:04;;;;;;;;;14.50;12.75;;;;;24.59;40.94;101438.06;5060174;28;45408;-66
2022/05/10 10:26:51;;;;;;;;;11.25;11.25;;;;;24.63;40.10;101441.41;5060536;28;45450;-66
2022/05/10 10:29:25;;;;;;;;;12.50;11.75;;;;;24.65;39.68;101438.53;5068076;28;45395;-66
2022/05/10 10:32:37;;;;;;;;;10.50;10.50;;;;;24.65;40.05;101439.41;5069136;28;45446;-66
2022/05/10 10:35:31;;;;;;;;;10.75;10.25;;;;;24.65;39.66;101446.72;5061276;28;45459;-66
2022/05/10 10:38:11;;;;;;;;;12.25;11.25;;;;;24.58;39.55;101436.31;5064382;27;45510;-66
2022/05/10 10:40:41;;;;;;;;;10.75;10.00;;;;;24.65;39.95;101441.28;5062928;28;45540;-66
2022/05/10 10:43:09;;;;;;;;;13.50;13.50;;;;;24.68;39.78;101441.03;5070727;28;46068;-66
2022/05/10 10:45:54;;;;;;;;;11.75;11.25;;;;;24.71;39.44;101449.84;5061108;28;45462;-66
2022/05/10 10:48:27;;;;;;;;;11.25;11.25;;;;;24.73;39.71;101434.19;5061470;28;45589;-66
2022/05/10 10:50:53;;;;;;;;;11.00;10.75;;;;;24.85;39.45;101437.78;5059214;28;45320;-66
2022/05/10 10:53:22;;;;;;;;;9.00;9.00;;;;;24.90;39.25;101440.13;5069477;28;46277;-66
2022/05/10 10:56:10;;;;;;;;;10.25;10.25;;;;;24.94;39.66;101438.88;5060401;28;45267;-66
2022/05/10 10:59:01;;;;;;;;;11.25;11.25;;;;;24.97;39.70;101444.09;5072809;28;45468;-66
2022/05/10 11:01:29;;;;;;;;;11.75;10.75;;;;;25.03;39.24;101438.13;5059784;28;45243;-66
2022/05/10 11:04:06;;;;;;;;;10.75;10.25;;;;;25.05;38.51;101425.22;5067059;28;46161;-66
2022/05/10 11:06:57;;;;;;;;;6.75;6.75;;;;;25.07;38.56;101436.00;5060404;28;45588;-66
2022/05/10 11:09:37;;;;;;;;;10.50;10.50;;;;;25.07;38.69;101433.28;5073704;28;45421;-66
2022/05/10 11:12:24;;;;;;;;;11.00;10.75;;;;;25.08;38.70;101419.50;5078028;28;45478;-66
2022/05/10 11:15:01;;;;;;;;;8.50;8.50;;;;;25.11;39.41;101419.25;5066062;28;46321;-66
2022/05/10 11:17:39;;;;;;;;;11.00;10.00;;;;;25.15;39.06;101409.78;5059778;28;45318;-66
2022/05/10 11:20:37;;;;;;;;;12.25;11.25;;;;;25.20;39.39;101400.34;5068556;28;45517;-66
2022/05/10 11:23:10;;;;;;;;;11.50;11.50;;;;;25.26;38.39;101398.00;5074464;28;45476;-66
2022/05/10 11:26:09;;;;;;;;;12.25;11.50;;;;;25.35;38.35;101400.97;5059471;28;46373;-65
2022/05/10 11:28:59;;;;;;;;;11.25;11.00;;;;;25.40;38.34;101399.56;5058837;28;45376;-66
2022/05/10 11:31:32;;;;;;;;;9.00;9.00;;;;;25.48;38.47;101390.72;5075147;28;45531;-66
2022/05/10 11:33:57;;;;;;;;;9.50;9.25;;;;;25.55;37.78;101391.06;5062007;28;45568;-66
2022/05/10 11:36:40;;;;;;;;;10.75;10.75;;;;;25.61;38.17;101383.19;5058814;28;46247;-66
2022/05/10 11:39:11;;;;;;;;;9.00;9.00;;;;;25.64;37.39;101387.50;5069609;28;45457;-66